Lindsay, California
Current Conditions -  °F | °C
As of 12:15 PM on Wednesday 26 Nov 2014 (Local Time) from KPTV Reporting Station
Clear Clear  
Wind Chill: 64°   Ceiling: Unl
Heat Index: 64°   Visibility: 5mi
Dew Point: 45°   Wind: 3mph
Humidity: 49%   Direction: 290°WNW
Pressure: 30.29"   Gusts: NA
Location:  36.2°N, 119.08°W
Report Text: KPTV 262015Z AUTO 29003KT 5SM CLR 18/07 A3029 RMK AO1
Loading
Personal Weather Stations






























Interactive Weather Map New forecast layout! Learn more

10-Day Weather Forecast

Advertisements
Track Severe Weather on mobile